createdAt,value
2018-06-11T00:00:00.144Z,1005.66
2018-06-11T00:01:00.130Z,1005.67
2018-06-11T00:02:00.113Z,1005.66
2018-06-11T00:03:00.102Z,1005.68
2018-06-11T00:04:00.088Z,1005.73
2018-06-11T00:05:00.075Z,1005.73
2018-06-11T00:06:00.060Z,1005.71
2018-06-11T00:07:00.047Z,1005.76
2018-06-11T00:08:00.039Z,1005.75
2018-06-11T00:09:00.018Z,1005.72
2018-06-11T00:10:00.024Z,1005.78
2018-06-11T00:10:59.987Z,1005.78
2018-06-11T00:11:59.974Z,1005.74
2018-06-11T00:12:59.960Z,1005.75
2018-06-11T00:13:59.995Z,1005.74
2018-06-11T00:14:59.937Z,1005.74
2018-06-11T00:15:59.919Z,1005.74
2018-06-11T00:16:59.904Z,1005.78
2018-06-11T00:17:59.894Z,1005.79
2018-06-11T00:18:59.877Z,1005.82
2018-06-11T00:19:59.863Z,1005.78
2018-06-11T00:20:59.849Z,1005.79
2018-06-11T00:21:59.833Z,1005.78
2018-06-11T00:22:59.845Z,1005.77
2018-06-11T00:23:59.805Z,1005.78
2018-06-11T00:24:59.795Z,1005.76
2018-06-11T00:25:59.779Z,1005.76
2018-06-11T00:26:59.763Z,1005.77
2018-06-11T00:27:59.752Z,1005.77
2018-06-11T00:28:59.736Z,1005.76
2018-06-11T00:29:59.722Z,1005.76
2018-06-11T00:30:59.705Z,1005.82
2018-06-11T00:31:59.694Z,1005.85
2018-06-11T00:32:59.679Z,1005.88
2018-06-11T00:33:59.663Z,1005.93
2018-06-11T00:34:59.651Z,1005.94
2018-06-11T00:35:59.635Z,1005.96
2018-06-11T00:36:59.621Z,1005.99
2018-06-11T00:37:59.615Z,1005.97
2018-06-11T00:38:59.592Z,1006.00
2018-06-11T00:39:59.580Z,1005.98
2018-06-11T00:40:59.563Z,1005.97
2018-06-11T00:41:59.550Z,1006.00
2018-06-11T00:42:59.536Z,1005.96
2018-06-11T00:43:59.522Z,1005.95
2018-06-11T00:44:59.508Z,1005.93
2018-06-11T00:45:59.497Z,1005.98
2018-06-11T00:46:59.477Z,1005.97
2018-06-11T00:47:59.464Z,1005.99
2018-06-11T00:48:59.451Z,1006.02
2018-06-11T00:49:59.435Z,1006.05
2018-06-11T00:50:59.421Z,1006.02
2018-06-11T00:51:59.407Z,1006.02
2018-06-11T00:52:59.392Z,1006.02
2018-06-11T00:53:59.378Z,1006.01
2018-06-11T00:54:59.366Z,1005.98
2018-06-11T00:55:59.348Z,1005.98
2018-06-11T00:56:59.340Z,1006.02
2018-06-11T00:57:59.321Z,1006.07
2018-06-11T00:58:59.305Z,1006.04
2018-06-11T00:59:59.292Z,1006.08
2018-06-11T01:00:59.282Z,1006.07
2018-06-11T01:01:59.263Z,1006.12
2018-06-11T01:02:59.254Z,1006.15
2018-06-11T01:03:59.235Z,1006.16
2018-06-11T01:04:59.220Z,1006.15
2018-06-11T01:05:59.207Z,1006.16
2018-06-11T01:06:59.247Z,1006.15
2018-06-11T01:07:59.177Z,1006.11
2018-06-11T01:08:59.183Z,1006.14
2018-06-11T01:09:59.200Z,1006.16
2018-06-11T01:10:59.136Z,1006.14
2018-06-11T01:11:59.121Z,1006.11
2018-06-11T01:12:59.107Z,1006.10
2018-06-11T01:13:59.096Z,1006.07
2018-06-11T01:14:59.079Z,1006.01
2018-06-11T01:15:59.062Z,1006.03
2018-06-11T01:16:59.048Z,1006.05
2018-06-11T01:17:59.031Z,1006.03
2018-06-11T01:18:59.023Z,1006.01
2018-06-11T01:19:59.003Z,1006.02
2018-06-11T01:20:58.992Z,1006.04
2018-06-11T01:21:58.975Z,1006.02
2018-06-11T01:22:58.961Z,1006.05
2018-06-11T01:23:58.948Z,1006.10
2018-06-11T01:24:58.932Z,1006.06
2018-06-11T01:25:58.920Z,1006.08
2018-06-11T01:26:58.903Z,1006.06
2018-06-11T01:27:58.894Z,1006.08
2018-06-11T01:28:58.876Z,1006.06
2018-06-11T01:29:58.860Z,1006.05
2018-06-11T01:30:58.846Z,1006.03
2018-06-11T01:31:58.830Z,1006.08
2018-06-11T01:32:58.819Z,1006.06
2018-06-11T01:33:58.801Z,1006.05
2018-06-11T01:34:58.786Z,1006.03
2018-06-11T01:35:58.776Z,1006.03
2018-06-11T01:36:58.758Z,1006.03
2018-06-11T01:37:58.745Z,1006.03
2018-06-11T01:38:58.731Z,1006.01
2018-06-11T01:39:58.717Z,1006.01
2018-06-11T01:40:58.711Z,1006.05
2018-06-11T01:41:58.684Z,1006.00
2018-06-11T01:42:58.672Z,1006.00
2018-06-11T01:43:58.656Z,1006.02
2018-06-11T01:44:58.641Z,1006.03
2018-06-11T01:45:58.627Z,1006.02
2018-06-11T01:46:58.613Z,1006.05
2018-06-11T01:47:58.599Z,1006.03
2018-06-11T01:48:58.592Z,1006.09
2018-06-11T01:49:58.575Z,1006.15
2018-06-11T01:50:58.559Z,1006.13
2018-06-11T01:51:58.541Z,1006.18
2018-06-11T01:52:58.527Z,1006.19
2018-06-11T01:53:58.510Z,1006.16
2018-06-11T01:54:58.496Z,1006.21
2018-06-11T01:55:58.484Z,1006.18
2018-06-11T01:56:58.470Z,1006.22
2018-06-11T01:57:58.451Z,1006.18
2018-06-11T01:58:58.437Z,1006.16
2018-06-11T01:59:58.423Z,1006.16
2018-06-11T02:00:58.413Z,1006.17
2018-06-11T02:01:58.396Z,1006.20
2018-06-11T02:02:58.381Z,1006.23
2018-06-11T02:03:58.368Z,1006.23
2018-06-11T02:04:58.355Z,1006.23
2018-06-11T02:05:58.339Z,1006.23
2018-06-11T02:06:58.320Z,1006.24
2018-06-11T02:07:58.306Z,1006.29
2018-06-11T02:08:58.295Z,1006.26
2018-06-11T02:09:58.276Z,1006.26
2018-06-11T02:10:58.264Z,1006.27
2018-06-11T02:11:58.251Z,1006.24
2018-06-11T02:12:58.239Z,1006.24
2018-06-11T02:13:58.223Z,1006.21
2018-06-11T02:14:58.207Z,1006.20
2018-06-11T02:15:58.196Z,1006.19
2018-06-11T02:16:58.181Z,1006.27
2018-06-11T02:17:58.163Z,1006.29
2018-06-11T02:18:58.144Z,1006.26
2018-06-11T02:19:58.129Z,1006.21
2018-06-11T02:20:58.117Z,1006.21
2018-06-11T02:21:58.131Z,1006.20
2018-06-11T02:22:58.085Z,1006.18
2018-06-11T02:23:58.070Z,1006.22
2018-06-11T02:24:58.056Z,1006.21
2018-06-11T02:25:58.043Z,1006.16
2018-06-11T02:26:58.035Z,1006.21
2018-06-11T02:27:58.016Z,1006.18
2018-06-11T02:28:57.997Z,1006.18
2018-06-11T02:29:57.987Z,1006.20
2018-06-11T02:30:57.976Z,1006.14
2018-06-11T02:31:57.962Z,1006.14
2018-06-11T02:32:57.945Z,1006.22
2018-06-11T02:33:57.940Z,1006.17
2018-06-11T02:34:57.912Z,1006.17
2018-06-11T02:35:57.897Z,1006.17
2018-06-11T02:36:57.890Z,1006.16
2018-06-11T02:37:57.867Z,1006.14
2018-06-11T02:38:57.850Z,1006.09
2018-06-11T02:39:57.841Z,1006.07
2018-06-11T02:40:57.829Z,1006.07
2018-06-11T02:41:57.804Z,1006.09
2018-06-11T02:42:57.789Z,1006.09
2018-06-11T02:43:57.781Z,1006.09
2018-06-11T02:44:57.762Z,1006.09
2018-06-11T02:45:57.746Z,1006.10
2018-06-11T02:46:57.731Z,1006.08
2018-06-11T02:47:57.723Z,1006.15
2018-06-11T02:48:57.701Z,1006.12
2018-06-11T02:49:57.687Z,1006.11
2018-06-11T02:50:57.673Z,1006.13
2018-06-11T02:51:57.659Z,1006.16
2018-06-11T02:52:57.645Z,1006.14
2018-06-11T02:53:57.629Z,1006.18
2018-06-11T02:54:57.613Z,1006.16
2018-06-11T02:55:57.598Z,1006.21
2018-06-11T02:56:57.584Z,1006.16
2018-06-11T02:57:57.572Z,1006.14
2018-06-11T02:58:57.553Z,1006.13
2018-06-11T02:59:57.542Z,1006.12
2018-06-11T03:00:57.527Z,1006.13
2018-06-11T03:01:57.509Z,1006.13
2018-06-11T03:02:57.494Z,1006.15
2018-06-11T03:03:57.486Z,1006.12
2018-06-11T03:04:57.464Z,1006.13
2018-06-11T03:05:57.454Z,1006.16
2018-06-11T03:06:57.435Z,1006.19
2018-06-11T03:07:57.421Z,1006.17
2018-06-11T03:08:57.409Z,1006.19
2018-06-11T03:09:57.390Z,1006.21
2018-06-11T03:10:57.376Z,1006.19
2018-06-11T03:11:57.359Z,1006.21
2018-06-11T03:12:57.347Z,1006.26
2018-06-11T03:13:57.331Z,1006.29
2018-06-11T03:14:57.315Z,1006.30
2018-06-11T03:15:57.302Z,1006.34
2018-06-11T03:16:57.286Z,1006.35
2018-06-11T03:17:57.271Z,1006.34
2018-06-11T03:18:57.258Z,1006.31
2018-06-11T03:19:57.248Z,1006.31
2018-06-11T03:20:57.227Z,1006.31
2018-06-11T03:21:57.211Z,1006.31
2018-06-11T03:22:57.198Z,1006.31
2018-06-11T03:23:57.182Z,1006.36
2018-06-11T03:24:57.170Z,1006.40
2018-06-11T03:25:57.156Z,1006.42
2018-06-11T03:26:57.138Z,1006.46
2018-06-11T03:27:57.123Z,1006.53
2018-06-11T03:28:57.110Z,1006.54
2018-06-11T03:29:57.092Z,1006.53
2018-06-11T03:30:57.077Z,1006.50
2018-06-11T03:31:57.064Z,1006.50
2018-06-11T03:32:57.053Z,1006.52
2018-06-11T03:33:57.034Z,1006.51
2018-06-11T03:34:57.021Z,1006.52
2018-06-11T03:35:57.003Z,1006.52
2018-06-11T03:36:56.988Z,1006.52
2018-06-11T03:37:56.973Z,1006.51
2018-06-11T03:38:56.957Z,1006.51
2018-06-11T03:39:56.945Z,1006.54
2018-06-11T03:40:56.930Z,1006.55
2018-06-11T03:41:56.912Z,1006.60
2018-06-11T03:42:56.898Z,1006.57
2018-06-11T03:43:56.886Z,1006.59
2018-06-11T03:44:56.869Z,1006.54
2018-06-11T03:45:56.856Z,1006.54
2018-06-11T03:46:56.839Z,1006.60
2018-06-11T03:47:56.824Z,1006.59
2018-06-11T03:48:56.809Z,1006.59
2018-06-11T03:49:56.793Z,1006.62
2018-06-11T03:50:56.779Z,1006.60
2018-06-11T03:51:56.765Z,1006.63
2018-06-11T03:52:56.752Z,1006.61
2018-06-11T03:53:56.733Z,1006.59
2018-06-11T03:54:56.723Z,1006.58
2018-06-11T03:55:56.705Z,1006.59
2018-06-11T03:56:56.694Z,1006.63
2018-06-11T03:57:56.678Z,1006.64
2018-06-11T03:58:56.661Z,1006.67
2018-06-11T03:59:56.651Z,1006.69
2018-06-11T04:00:56.634Z,1006.73
2018-06-11T04:03:04.967Z,1006.71
2018-06-11T04:04:04.879Z,1006.73
2018-06-11T04:05:04.855Z,1006.70
2018-06-11T04:06:04.840Z,1006.72
2018-06-11T04:07:04.824Z,1006.75
2018-06-11T04:08:04.809Z,1006.75
2018-06-11T04:09:04.794Z,1006.78
2018-06-11T04:10:04.779Z,1006.77
2018-06-11T04:11:04.840Z,1006.78
2018-06-11T04:12:04.751Z,1006.82
2018-06-11T04:13:04.736Z,1006.78
2018-06-11T04:14:04.721Z,1006.81
2018-06-11T04:15:04.706Z,1006.85
2018-06-11T04:16:04.691Z,1006.85
2018-06-11T04:17:04.676Z,1006.82
2018-06-11T04:18:04.664Z,1006.83
2018-06-11T04:19:04.648Z,1006.82
2018-06-11T04:20:04.633Z,1006.86
2018-06-11T04:21:04.625Z,1006.94
2018-06-11T04:22:04.604Z,1006.94
2018-06-11T04:23:04.591Z,1006.92
2018-06-11T04:24:04.583Z,1006.93
2018-06-11T04:25:04.561Z,1006.93
2018-06-11T04:26:04.546Z,1006.95
2018-06-11T04:27:04.533Z,1006.96
2018-06-11T04:28:04.517Z,1006.92
2018-06-11T04:29:04.505Z,1006.90
2018-06-11T04:30:04.490Z,1006.88
2018-06-11T04:31:04.479Z,1006.92
2018-06-11T04:32:04.459Z,1006.91
2018-06-11T04:33:04.445Z,1006.94
2018-06-11T04:34:04.435Z,1007.00
2018-06-11T04:35:04.417Z,1006.96
2018-06-11T04:36:04.403Z,1007.03
2018-06-11T04:37:04.389Z,1007.01
2018-06-11T04:38:04.372Z,1007.00
2018-06-11T04:39:04.359Z,1007.02
2018-06-11T04:40:04.347Z,1007.01
2018-06-11T04:41:04.333Z,1007.03
2018-06-11T04:42:04.315Z,1007.09
2018-06-11T04:43:04.303Z,1007.07
2018-06-11T04:44:04.288Z,1007.08
2018-06-11T04:45:04.275Z,1007.07
2018-06-11T04:46:04.258Z,1007.07
2018-06-11T04:47:04.249Z,1007.04
2018-06-11T04:48:04.231Z,1007.02
2018-06-11T04:49:04.218Z,1007.06
2018-06-11T04:50:04.202Z,1007.03
2018-06-11T04:51:04.187Z,1007.08
2018-06-11T04:52:04.173Z,1007.02
2018-06-11T04:53:04.161Z,1007.03
2018-06-11T04:54:04.152Z,1007.07
2018-06-11T04:55:04.179Z,1007.10
2018-06-11T04:56:04.116Z,1007.09
2018-06-11T04:57:04.107Z,1007.01
2018-06-11T04:58:04.089Z,1007.01
2018-06-11T04:59:04.075Z,1007.01
2018-06-11T05:00:04.060Z,1007.00
2018-06-11T05:01:04.045Z,1007.01
2018-06-11T05:02:04.063Z,1007.03
2018-06-11T05:03:04.018Z,1007.04
2018-06-11T05:04:04.007Z,1007.04
2018-06-11T05:05:03.991Z,1007.07
2018-06-11T05:06:03.975Z,1007.09
2018-06-11T05:07:03.965Z,1007.07
2018-06-11T05:08:03.996Z,1007.06
2018-06-11T05:09:03.933Z,1007.11
2018-06-11T05:10:03.922Z,1007.11
2018-06-11T05:11:03.907Z,1007.11
2018-06-11T05:12:03.904Z,1007.14
2018-06-11T05:13:03.877Z,1007.16
2018-06-11T05:14:03.874Z,1007.16
2018-06-11T05:15:03.847Z,1007.11
2018-06-11T05:16:03.837Z,1007.17
2018-06-11T05:17:03.825Z,1007.21
2018-06-11T05:18:03.813Z,1007.21
2018-06-11T05:19:03.792Z,1007.23
2018-06-11T05:20:03.825Z,1007.20
2018-06-11T05:21:03.763Z,1007.19
2018-06-11T05:22:03.752Z,1007.21
2018-06-11T05:23:03.739Z,1007.26
2018-06-11T05:24:03.724Z,1007.26
2018-06-11T05:25:03.714Z,1007.25
2018-06-11T05:26:03.700Z,1007.25
2018-06-11T05:27:03.683Z,1007.23
2018-06-11T05:28:03.666Z,1007.24
2018-06-11T05:29:03.655Z,1007.29
2018-06-11T05:30:03.642Z,1007.28
2018-06-11T05:31:03.624Z,1007.27
2018-06-11T05:32:03.612Z,1007.32
2018-06-11T05:33:03.597Z,1007.28
2018-06-11T05:34:03.584Z,1007.33
2018-06-11T05:35:03.571Z,1007.33
2018-06-11T05:36:03.557Z,1007.34
2018-06-11T05:37:03.542Z,1007.35
2018-06-11T05:38:03.552Z,1007.32
2018-06-11T05:39:03.518Z,1007.36
2018-06-11T05:40:03.506Z,1007.34
2018-06-11T05:41:03.488Z,1007.34
2018-06-11T05:42:03.475Z,1007.36
2018-06-11T05:43:03.461Z,1007.34
2018-06-11T05:44:03.447Z,1007.36
2018-06-11T05:45:03.441Z,1007.34
2018-06-11T05:46:03.425Z,1007.35
2018-06-11T05:47:03.405Z,1007.36
2018-06-11T05:48:03.396Z,1007.39
2018-06-11T05:49:03.382Z,1007.42
2018-06-11T05:50:03.366Z,1007.44
2018-06-11T05:51:03.354Z,1007.41
2018-06-11T05:52:03.344Z,1007.43
2018-06-11T05:53:03.325Z,1007.41
2018-06-11T05:54:03.312Z,1007.48
2018-06-11T05:55:03.299Z,1007.49
2018-06-11T05:56:03.291Z,1007.48
2018-06-11T05:57:03.273Z,1007.49
2018-06-11T05:58:03.262Z,1007.52
2018-06-11T05:59:03.249Z,1007.48
2018-06-11T06:00:03.230Z,1007.53
2018-06-11T06:01:03.218Z,1007.51
2018-06-11T06:02:03.206Z,1007.50
2018-06-11T06:03:03.191Z,1007.53
2018-06-11T06:04:03.178Z,1007.50
2018-06-11T06:05:03.167Z,1007.52
2018-06-11T06:06:03.152Z,1007.52
2018-06-11T06:07:03.137Z,1007.51
2018-06-11T06:08:03.124Z,1007.54
2018-06-11T06:09:03.111Z,1007.54
2018-06-11T06:10:03.097Z,1007.55
2018-06-11T06:11:03.083Z,1007.53
2018-06-11T06:12:03.073Z,1007.54
2018-06-11T06:13:03.057Z,1007.54
2018-06-11T06:14:03.045Z,1007.58
2018-06-11T06:15:03.034Z,1007.61
2018-06-11T06:16:03.018Z,1007.59
2018-06-11T06:17:03.005Z,1007.60
2018-06-11T06:18:03.000Z,1007.61
2018-06-11T06:19:02.979Z,1007.65
2018-06-11T06:20:02.964Z,1007.66
2018-06-11T06:21:02.955Z,1007.68
2018-06-11T06:22:02.943Z,1007.70
2018-06-11T06:23:02.927Z,1007.67
2018-06-11T06:24:02.913Z,1007.67
2018-06-11T06:25:02.908Z,1007.67
2018-06-11T06:26:02.891Z,1007.71
2018-06-11T06:27:02.911Z,1007.69
2018-06-11T06:28:02.865Z,1007.69
2018-06-11T06:29:02.849Z,1007.65
2018-06-11T06:30:02.843Z,1007.69
2018-06-11T06:31:02.824Z,1007.66
2018-06-11T06:32:02.816Z,1007.61
2018-06-11T06:33:02.797Z,1007.64
2018-06-11T06:34:02.817Z,1007.64
2018-06-11T06:35:02.772Z,1007.58
2018-06-11T06:36:02.756Z,1007.66
2018-06-11T06:37:02.745Z,1007.59
2018-06-11T06:38:02.734Z,1007.61
2018-06-11T06:39:02.721Z,1007.60
2018-06-11T06:40:02.708Z,1007.58
2018-06-11T06:41:02.694Z,1007.60
2018-06-11T06:42:02.684Z,1007.58
2018-06-11T06:43:02.673Z,1007.61
2018-06-11T06:44:02.663Z,1007.57
2018-06-11T06:45:02.645Z,1007.60
2018-06-11T06:46:02.631Z,1007.61
2018-06-11T06:47:02.620Z,1007.58
2018-06-11T06:48:02.603Z,1007.62
2018-06-11T06:49:02.591Z,1007.69
2018-06-11T06:50:02.580Z,1007.78
2018-06-11T06:51:02.564Z,1007.79
2018-06-11T06:52:02.551Z,1007.82
2018-06-11T06:53:02.541Z,1007.72
2018-06-11T06:54:02.529Z,1007.68
2018-06-11T06:55:02.516Z,1007.70
2018-06-11T06:56:02.502Z,1007.65
2018-06-11T06:57:02.490Z,1007.62
2018-06-11T06:58:02.476Z,1007.59
2018-06-11T06:59:02.466Z,1007.60
2018-06-11T07:00:02.454Z,1007.62
2018-06-11T07:01:02.442Z,1007.65
2018-06-11T07:02:02.431Z,1007.62
2018-06-11T07:03:02.415Z,1007.62
2018-06-11T07:04:02.405Z,1007.59
2018-06-11T07:05:02.390Z,1007.57
2018-06-11T07:06:02.383Z,1007.60
2018-06-11T07:07:02.367Z,1007.59
2018-06-11T07:08:02.399Z,1007.70
2018-06-11T07:09:02.342Z,1007.96
2018-06-11T07:10:02.333Z,1008.04
2018-06-11T07:11:02.317Z,1008.01
2018-06-11T07:12:02.305Z,1007.86
2018-06-11T07:13:02.293Z,1007.81
2018-06-11T07:14:02.283Z,1007.73
2018-06-11T07:15:02.267Z,1007.74
2018-06-11T07:16:02.269Z,1007.74
2018-06-11T07:17:02.244Z,1007.69
2018-06-11T07:18:02.234Z,1007.64
2018-06-11T07:19:02.227Z,1007.63
2018-06-11T07:20:02.208Z,1007.66
2018-06-11T07:21:02.195Z,1007.65
2018-06-11T07:22:02.187Z,1007.64
2018-06-11T07:23:02.171Z,1007.65
2018-06-11T07:24:02.167Z,1007.60
2018-06-11T07:25:02.151Z,1007.62
2018-06-11T07:26:02.139Z,1007.58
2018-06-11T07:27:02.134Z,1007.54
2018-06-11T07:28:02.113Z,1007.51
2018-06-11T07:29:02.102Z,1007.53
2018-06-11T07:30:02.090Z,1007.49
2018-06-11T07:31:02.079Z,1007.54
2018-06-11T07:32:02.066Z,1007.54
2018-06-11T07:33:02.056Z,1007.56
2018-06-11T07:34:02.097Z,1007.59
2018-06-11T07:35:02.062Z,1007.58
2018-06-11T07:36:02.021Z,1007.62
2018-06-11T07:37:02.007Z,1007.69
2018-06-11T07:38:01.996Z,1007.90
2018-06-11T07:39:01.987Z,1007.89
2018-06-11T07:40:01.979Z,1007.88
2018-06-11T07:41:01.999Z,1007.98
2018-06-11T07:42:01.949Z,1007.91
2018-06-11T07:43:01.938Z,1007.77
2018-06-11T07:44:01.927Z,1007.79
2018-06-11T07:45:01.918Z,1007.72
2018-06-11T07:46:01.903Z,1007.66
2018-06-11T07:47:01.891Z,1007.66
2018-06-11T07:48:01.904Z,1007.62
2018-06-11T07:49:01.871Z,1007.80
2018-06-11T07:50:01.868Z,1007.96
2018-06-11T07:51:01.850Z,1008.07
2018-06-11T07:52:01.838Z,1008.03
2018-06-11T07:53:01.827Z,1007.91
2018-06-11T07:54:01.815Z,1007.73
2018-06-11T07:55:01.812Z,1007.72
2018-06-11T07:56:01.796Z,1007.61
2018-06-11T07:57:01.788Z,1007.49
2018-06-11T07:58:01.776Z,1007.48
2018-06-11T07:59:01.763Z,1007.44
2018-06-11T08:00:01.834Z,1007.47
2018-06-11T08:01:01.739Z,1007.53
2018-06-11T08:02:01.733Z,1007.54
2018-06-11T08:03:01.717Z,1007.56
2018-06-11T08:04:01.710Z,1007.60
2018-06-11T08:05:01.695Z,1007.86
2018-06-11T08:06:01.685Z,1008.06
2018-06-11T08:07:01.676Z,1008.17
2018-06-11T08:08:01.664Z,1008.27
2018-06-11T08:09:01.656Z,1008.28
2018-06-11T08:10:01.641Z,1008.47
2018-06-11T08:11:01.633Z,1007.95
2018-06-11T08:12:01.619Z,1008.78
2018-06-11T08:13:01.610Z,1008.20
2018-06-11T08:14:01.601Z,1007.96
2018-06-11T08:15:01.591Z,1007.80
2018-06-11T08:16:01.579Z,1007.79
2018-06-11T08:17:01.571Z,1007.74
2018-06-11T08:18:01.559Z,1007.82
2018-06-11T08:19:01.557Z,1008.12
2018-06-11T08:20:01.540Z,1007.89
2018-06-11T08:21:01.532Z,1007.85
2018-06-11T08:22:01.522Z,1007.80
2018-06-11T08:23:01.512Z,1008.24
2018-06-11T08:24:01.500Z,1008.08
2018-06-11T08:25:01.495Z,1007.87
2018-06-11T08:26:01.488Z,1008.07
2018-06-11T08:27:01.474Z,1008.20
2018-06-11T08:28:01.465Z,1008.16
2018-06-11T08:29:01.464Z,1008.07
2018-06-11T08:30:01.447Z,1008.42
2018-06-11T08:31:01.437Z,1008.43
2018-06-11T08:32:01.430Z,1008.17
2018-06-11T08:33:01.424Z,1008.11
2018-06-11T08:34:01.414Z,1008.07
2018-06-11T08:35:01.406Z,1008.22
2018-06-11T08:36:01.407Z,1008.56
2018-06-11T08:37:01.396Z,1008.53
2018-06-11T08:38:01.380Z,1008.61
2018-06-11T08:39:01.378Z,1008.63
2018-06-11T08:40:01.366Z,1008.70
2018-06-11T08:41:01.361Z,1008.63
2018-06-11T08:42:01.353Z,1008.51
2018-06-11T08:43:01.347Z,1008.46
2018-06-11T08:44:01.339Z,1008.63
2018-06-11T08:45:01.333Z,1008.02
2018-06-11T08:46:01.326Z,1008.65
2018-06-11T08:47:01.320Z,1007.99
2018-06-11T08:48:01.313Z,1007.95
2018-06-11T08:49:01.307Z,1007.87
2018-06-11T08:50:01.346Z,1007.87
2018-06-11T08:51:01.297Z,1008.00
2018-06-11T08:52:01.290Z,1008.30
2018-06-11T08:53:01.286Z,1008.08
2018-06-11T08:54:01.280Z,1008.09
2018-06-11T08:55:01.280Z,1008.13
2018-06-11T08:56:01.264Z,1008.20
2018-06-11T08:57:01.261Z,1008.21
2018-06-11T08:58:01.252Z,1008.20
2018-06-11T08:59:01.246Z,1008.20
2018-06-11T09:00:01.290Z,1008.26
2018-06-11T09:01:01.243Z,1008.15
2018-06-11T09:02:01.229Z,1008.20
2018-06-11T09:03:01.224Z,1008.24
2018-06-11T09:04:01.216Z,1008.08
2018-06-11T09:05:01.213Z,1008.05
2018-06-11T09:06:01.209Z,1008.01
2018-06-11T09:07:01.250Z,1008.06
2018-06-11T09:08:01.193Z,1008.12
2018-06-11T09:09:01.187Z,1008.14
2018-06-11T09:10:01.181Z,1008.06
2018-06-11T09:11:01.175Z,1008.10
2018-06-11T09:12:01.177Z,1008.13
2018-06-11T09:13:01.164Z,1008.28
2018-06-11T09:14:01.159Z,1008.32
2018-06-11T09:15:01.162Z,1008.35
2018-06-11T09:16:01.143Z,1008.38
2018-06-11T09:17:01.139Z,1008.26
2018-06-11T09:18:01.160Z,1008.24
2018-06-11T09:19:01.126Z,1008.02
2018-06-11T09:20:01.120Z,1008.04
2018-06-11T09:21:01.113Z,1008.02
2018-06-11T09:22:01.109Z,1008.06
2018-06-11T09:23:01.101Z,1008.17
2018-06-11T09:24:01.096Z,1008.64
2018-06-11T09:25:01.157Z,1009.00
2018-06-11T09:26:01.083Z,1008.86
2018-06-11T09:27:01.079Z,1008.52
2018-06-11T09:28:01.069Z,1008.36
2018-06-11T09:29:01.062Z,1008.39
2018-06-11T09:30:01.061Z,1008.34
2018-06-11T09:31:01.107Z,1008.30
2018-06-11T09:32:01.046Z,1008.37
2018-06-11T09:33:01.038Z,1008.40
2018-06-11T09:34:01.035Z,1008.45
2018-06-11T09:35:01.024Z,1008.17
2018-06-11T09:36:01.023Z,1008.15
2018-06-11T09:37:01.019Z,1008.15
2018-06-11T09:38:01.011Z,1008.08
2018-06-11T09:39:01.004Z,1008.07
2018-06-11T09:40:00.999Z,1008.09
2018-06-11T09:41:00.995Z,1008.14
2018-06-11T09:42:00.989Z,1008.70
2018-06-11T09:43:00.979Z,1008.08
2018-06-11T09:44:01.064Z,1008.17
2018-06-11T09:45:00.970Z,1008.16
2018-06-11T09:46:00.961Z,1008.14
2018-06-11T09:47:00.957Z,1008.10
2018-06-11T09:48:00.950Z,1008.00
2018-06-11T09:49:00.944Z,1008.00
2018-06-11T09:50:00.941Z,1007.97
2018-06-11T09:51:00.936Z,1008.08
2018-06-11T09:52:00.928Z,1008.10
2018-06-11T09:53:00.922Z,1008.06
2018-06-11T09:54:00.919Z,1007.99
2018-06-11T09:55:00.910Z,1008.04
2018-06-11T09:56:00.900Z,1008.03
2018-06-11T09:57:00.896Z,1008.03
2018-06-11T09:58:00.890Z,1008.02
2018-06-11T09:59:00.887Z,1008.03
2018-06-11T10:00:00.875Z,1008.07
2018-06-11T10:01:00.868Z,1008.04
2018-06-11T10:02:00.861Z,1008.09
2018-06-11T10:03:00.855Z,1008.04
2018-06-11T10:04:00.848Z,1008.01
2018-06-11T10:05:00.841Z,1008.08
2018-06-11T10:06:00.834Z,1008.09
2018-06-11T10:07:00.827Z,1008.07
2018-06-11T10:08:00.820Z,1008.02
2018-06-11T10:09:00.817Z,1008.00
2018-06-11T10:10:00.817Z,1008.04
2018-06-11T10:11:00.797Z,1008.09
2018-06-11T10:12:00.793Z,1008.04
2018-06-11T10:13:00.785Z,1008.11
2018-06-11T10:14:00.778Z,1008.12
2018-06-11T10:15:00.769Z,1008.12
2018-06-11T10:16:00.764Z,1008.07
2018-06-11T10:17:00.759Z,1008.14
2018-06-11T10:18:00.750Z,1008.06
2018-06-11T10:19:00.751Z,1008.05
2018-06-11T10:20:00.734Z,1008.11
2018-06-11T10:21:00.724Z,1008.10
2018-06-11T10:22:00.717Z,1008.00
2018-06-11T10:23:00.709Z,1007.97
2018-06-11T10:24:00.703Z,1007.99
2018-06-11T10:25:00.695Z,1008.05
2018-06-11T10:26:00.697Z,1008.04
2018-06-11T10:27:00.679Z,1008.11
2018-06-11T10:28:00.674Z,1008.06
2018-06-11T10:29:00.667Z,1008.09
2018-06-11T10:30:00.657Z,1008.07
2018-06-11T10:31:00.653Z,1008.08
2018-06-11T10:32:00.641Z,1008.07
2018-06-11T10:33:00.652Z,1008.09
2018-06-11T10:34:00.630Z,1008.02
2018-06-11T10:35:00.621Z,1008.00
2018-06-11T10:36:00.619Z,1008.01
2018-06-11T10:37:00.605Z,1008.06
2018-06-11T10:38:00.597Z,1008.09
2018-06-11T10:39:00.589Z,1008.07
2018-06-11T10:40:00.582Z,1008.11
2018-06-11T10:41:00.570Z,1008.06
2018-06-11T10:42:00.566Z,1008.09
2018-06-11T10:43:00.554Z,1008.09
2018-06-11T10:44:00.550Z,1008.11
2018-06-11T10:45:00.539Z,1008.18
2018-06-11T10:46:00.534Z,1008.02
2018-06-11T10:47:00.523Z,1008.07
2018-06-11T10:48:00.517Z,1008.04
2018-06-11T10:49:00.507Z,1008.07
2018-06-11T10:50:00.504Z,1008.05
2018-06-11T10:51:00.490Z,1008.03
2018-06-11T10:52:00.483Z,1007.91
2018-06-11T10:53:00.477Z,1007.94
2018-06-11T10:54:00.468Z,1008.05
2018-06-11T10:55:00.468Z,1008.05
2018-06-11T10:56:00.452Z,1008.06
2018-06-11T10:57:00.444Z,1008.07
2018-06-11T10:58:00.489Z,1008.06
2018-06-11T10:59:00.431Z,1007.91
2018-06-11T11:00:00.421Z,1007.93
2018-06-11T11:01:00.412Z,1008.05
2018-06-11T11:02:00.403Z,1008.07
2018-06-11T11:03:00.398Z,1008.08
2018-06-11T11:04:00.387Z,1008.07
2018-06-11T11:05:00.388Z,1008.04
2018-06-11T11:06:00.371Z,1008.09
2018-06-11T11:07:00.365Z,1007.96
2018-06-11T11:08:00.355Z,1007.97
2018-06-11T11:09:00.347Z,1008.05
2018-06-11T11:10:00.340Z,1008.02
2018-06-11T11:11:00.331Z,1008.01
2018-06-11T11:12:00.324Z,1008.01
2018-06-11T11:13:00.316Z,1008.05
2018-06-11T11:14:00.310Z,1008.06
2018-06-11T11:15:00.300Z,1007.97
2018-06-11T11:16:00.292Z,1007.94
2018-06-11T11:17:00.283Z,1007.96
2018-06-11T11:18:00.275Z,1007.97
2018-06-11T11:19:00.270Z,1007.94
2018-06-11T11:20:00.258Z,1007.93
2018-06-11T11:21:00.251Z,1007.92
2018-06-11T11:22:00.244Z,1007.85
2018-06-11T11:23:00.237Z,1007.87
2018-06-11T11:24:00.249Z,1007.84
2018-06-11T11:25:00.231Z,1007.84
2018-06-11T11:26:00.209Z,1007.84
2018-06-11T11:27:00.201Z,1007.88
2018-06-11T11:28:00.197Z,1007.86
2018-06-11T11:29:00.188Z,1007.87
2018-06-11T11:30:00.195Z,1007.83
2018-06-11T11:31:00.170Z,1007.82
2018-06-11T11:32:00.163Z,1007.82
2018-06-11T11:33:00.161Z,1007.84
2018-06-11T11:34:00.153Z,1007.90
2018-06-11T11:35:00.142Z,1007.70
2018-06-11T11:36:00.130Z,1007.84
2018-06-11T11:37:00.122Z,1007.87
2018-06-11T11:38:00.118Z,1007.86
2018-06-11T11:39:00.106Z,1007.81
2018-06-11T11:40:00.108Z,1007.81
2018-06-11T11:41:00.092Z,1007.81
2018-06-11T11:42:00.087Z,1007.79
2018-06-11T11:43:00.080Z,1007.78
2018-06-11T11:44:00.090Z,1007.81
2018-06-11T11:45:00.072Z,1007.78
2018-06-11T11:46:00.057Z,1007.74
2018-06-11T11:47:00.045Z,1007.76
2018-06-11T11:48:00.042Z,1007.66
2018-06-11T11:49:00.036Z,1007.66
2018-06-11T11:50:00.033Z,1007.76
2018-06-11T11:51:00.039Z,1007.75
2018-06-11T11:52:00.019Z,1007.79
2018-06-11T11:52:59.999Z,1007.70
2018-06-11T11:53:59.993Z,1007.75
2018-06-11T11:54:59.987Z,1007.76
2018-06-11T11:55:59.977Z,1007.74
2018-06-11T11:56:59.975Z,1007.89
2018-06-11T11:57:59.968Z,1007.99
2018-06-11T11:58:59.962Z,1008.19
2018-06-11T11:59:59.950Z,1008.25
2018-06-11T12:00:59.945Z,1008.30
2018-06-11T12:01:59.944Z,1008.33
2018-06-11T12:02:59.931Z,1008.33
2018-06-11T12:03:59.926Z,1008.31
2018-06-11T12:04:59.921Z,1008.32
2018-06-11T12:05:59.921Z,1008.33